Relevés horaires Bierset (Belgique)


Relevés horaires à Bierset - Jeudi 13 Juill. 2017
Heure UTC1 Température [°C] Vent [km/h] Hum. [%] Pres.4 [hPa] Visi. [Km] Nébu. [octa] Préc.5 [mm] Cond.
2m. Res. Ros. Dir.2 Vit. Moy. Raf.3
23:00 16.1 16.1 8.0 ENE 1.9 3.7 11.1 59 1018.5(-0.4/3h) 30 7/8 -- --
22:00 16.2 16.2 8.2 E 1.9 5.6 9.3 59 1018.6(-0.3/3h) 30 5/8 -- --
21:00 16.0 16.0 8.7 NE 3.7 5.6 9.3 62 1019.1(-0.2/3h) 30 7/8 -- --
20:00 17.0 17.0 9.2 N 3.7 5.6 9.3 60 1018.9(-0.7/3h) 30 7/8 -- --
19:00 18.6 18.6 8.0 N 5.6 5.6 9.3 50 1018.8(-1.1/3h) 30 7/8 -- --
18:00 19.5 19.5 8.3 N 5.6 5.6 13.0 48 1019.1(-1.2/3h) 25 6/8 0/12h
--
17:00 20.3 20.3 7.1 N 3.7 5.6 9.3 42 1019.4(-1.3/3h) 25 6/8 -- --
16:00 20.8 20.8 7.1 N 5.6 5.6 9.3 41 1019.7(-1.5/3h) 25 5/8 -- --
15:00 20.6 20.6 7.8 N 3.7 5.6 13.0 44 1020.3(-1.5/3h) 25 5/8 -- --
14:00 20.3 20.3 6.0 NNO 1.9 5.6 11.1 39 1020.7(-1.8/3h) 25 6/8 -- --
13:00 19.2 19.2 6.3 NNO 3.7 5.6 13.0 43 1021.4(-1.6/3h) 25 5/8 -- --
12:00 18.5 18.5 6.8 NNO 3.7 7.4 20.4 46 1022(-1.5/3h) 25 3/8 0/6h
--
11:00 17.5 17.5 7.1 NNE 3.7 7.4 9.3 50 1022.8(-1.0/3h) 25 2/8 -- --
10:00 16.7 16.7 7.2 N 3.7 3.7 7.4 53 1023.2(-0.6/3h) 25 3/8 -- --
09:00 15.1 15.1 6.5 ESE 3.7 5.6 13.0 56 1023.8(0.0/3h) 25 3/8 -- --
08:00 15.1 15.1 8.6 ESE 3.7 3.7 7.4 65 1024(0.3/3h) 20 1/8 -- --
07:00 13.5 13.5 9.2 SSE 3.7 3.7 13.0 75 1024.1(0.5/3h) 13 1/8 -- --
06:00 11.8 11.8 9.5 SE 1.9 3.7 13.0 86 1024(0.4/3h) 13 1/8 0/12h
--
05:00 9.9 9.9 8.3 SE 3.7 3.7 13.0 90 1024.1(0.6/3h) 35 0/8 -- --
04:00 9.5 9.5 7.8 S 1.9 1.9 7.4 89 1023.9(0.5/3h) 35 0/8 -- --
03:00 9.8 9.8 7.8 NNO 1.9 1.9 3.7 87 1023.8(0.6/3h) 35 0/8 -- --
02:00 10.0 10.0 7.8 NNO 0.0 1.9 1.9 86 1023.5(0.4/3h) 35 0/8 -- --
01:00 10.4 10.4 8.2 NNO 0.0 1.9 3.7 86 1023.3(0.6/3h) 35 0/8 -- --
00:00 11.0 11.0 8.6 N 1.9 9.3 13.0 85 1023.1(1.1/3h) 35 0/8 0/6h
6.4/24h
--

1 Coordinated Universal Time. Actuellement il est 11:00 locale et 09:00 UTC.

2 Le vent souffle depuis la direction indiquée vers la direction oposée.

3 Les rafales max. sont disponible 40 min après l'heure du relevé.

4 Pour les stations d'altitude (plus de 600m) le géopotentiel du niveau le plus proche de la pression obligatoire est indiqué.

5 Les stations disposant d'un diffuseur peuvent indiquer "trace". Cela signifie que des précipitations ont touchés le sol mais que la quantité est inférieure à 0.1 mm.

Récapitulatif de la journée
Température [°C] Vent [km/h] Ensoleillement4 [h] Precipitations totale5 [mm] Pression [Hpa]
Min1 Max.2 Moy.3 Max. Min Max.
9.0 21.1 4.8 20.4 0 h 0 min 0 1018.5 1024.1

1 Température minimale relevée entre 18:00 UTC la veille et 18:00 UTC le jour donné.

2 Température maximale relevée entre 06:00 UTC le jour donné et 06:00 UTC le lendemain.

3 Vent moyen de la journée basé sur les relevés horaires.

4 Ensoleillement en heures relevé entre 06:00 UTC la veille et 06:00 UTC le jour donné.

5 Précipitations totales tombées entre 06:00 UTC la jour donné et 06:00 UTC le lendemain.

Graphiques horaires